createdAt,value
2018-08-06T00:00:29.971Z,18.50
2018-08-06T00:02:59.214Z,18.60
2018-08-06T00:05:28.534Z,18.60
2018-08-06T00:07:57.775Z,18.40
2018-08-06T00:10:27.909Z,18.30
2018-08-06T00:12:57.175Z,18.40
2018-08-06T00:15:26.620Z,18.40
2018-08-06T00:17:55.866Z,18.40
2018-08-06T00:20:25.220Z,18.20
2018-08-06T00:22:54.456Z,18.20
2018-08-06T00:25:23.686Z,18.20
2018-08-06T00:27:52.987Z,18.20
2018-08-06T00:30:22.496Z,18.20
2018-08-06T00:32:51.729Z,18.30
2018-08-06T00:35:20.933Z,18.20
2018-08-06T00:37:50.165Z,18.20
2018-08-06T00:40:20.963Z,18.30
2018-08-06T00:42:50.692Z,18.10
2018-08-06T00:45:21.199Z,17.80
2018-08-06T00:47:50.751Z,17.70
2018-08-06T00:50:19.998Z,17.70
2018-08-06T00:52:49.221Z,17.70
2018-08-06T00:55:19.628Z,17.80
2018-08-06T00:57:48.862Z,17.70
2018-08-06T01:00:19.369Z,17.70
2018-08-06T01:02:48.691Z,17.60
2018-08-06T01:05:18.323Z,17.60
2018-08-06T01:07:47.528Z,17.50
2018-08-06T01:10:18.758Z,17.50
2018-08-06T01:12:47.985Z,17.50
2018-08-06T01:15:18.890Z,17.40
2018-08-06T01:17:48.161Z,17.40
2018-08-06T01:20:17.376Z,17.30
2018-08-06T01:22:46.669Z,17.20
2018-08-06T01:25:16.079Z,17.10
2018-08-06T01:27:45.363Z,17.20
2018-08-06T01:30:15.613Z,17.20
2018-08-06T01:32:44.834Z,17.20
2018-08-06T01:35:14.042Z,17.20
2018-08-06T01:37:43.332Z,17.20
2018-08-06T01:40:14.189Z,17.20
2018-08-06T01:42:43.522Z,17.10
2018-08-06T01:45:15.747Z,16.90
2018-08-06T01:47:45.365Z,16.80
2018-08-06T01:50:16.041Z,16.90
2018-08-06T01:52:45.269Z,16.80
2018-08-06T01:55:14.561Z,16.90
2018-08-06T01:57:43.786Z,16.90
2018-08-06T02:02:44.038Z,16.90
2018-08-06T02:05:13.367Z,16.80
2018-08-06T02:07:42.619Z,16.70
2018-08-06T02:10:14.776Z,16.60
2018-08-06T02:12:44.808Z,16.50
2018-08-06T02:15:14.524Z,16.60
2018-08-06T02:17:43.743Z,16.70
2018-08-06T02:20:17.738Z,16.60
2018-08-06T02:22:48.301Z,16.60
2018-08-06T02:25:17.774Z,16.60
2018-08-06T02:27:47.004Z,16.50
2018-08-06T02:30:16.713Z,16.60
2018-08-06T02:32:45.924Z,16.50
2018-08-06T02:35:16.068Z,16.50
2018-08-06T02:37:45.471Z,16.50
2018-08-06T02:40:18.105Z,16.50
2018-08-06T02:42:48.432Z,16.40
2018-08-06T02:45:18.244Z,16.30
2018-08-06T02:47:47.923Z,16.40
2018-08-06T02:50:17.160Z,16.40
2018-08-06T02:52:46.399Z,16.40
2018-08-06T02:55:16.518Z,16.30
2018-08-06T02:57:45.839Z,16.30
2018-08-06T03:00:17.554Z,16.30
2018-08-06T03:02:47.533Z,16.30
2018-08-06T03:05:18.565Z,16.30
2018-08-06T03:07:48.005Z,16.20
2018-08-06T03:10:17.348Z,16.10
2018-08-06T03:12:47.261Z,16.10
2018-08-06T03:15:16.437Z,16.20
2018-08-06T03:17:45.649Z,16.20
2018-08-06T03:20:15.388Z,16.20
2018-08-06T03:22:44.621Z,16.20
2018-08-06T03:25:16.478Z,16.30
2018-08-06T03:27:46.073Z,16.50
2018-08-06T03:30:17.150Z,16.50
2018-08-06T03:32:47.613Z,16.30
2018-08-06T03:35:16.841Z,16.20
2018-08-06T03:37:46.087Z,16.10
2018-08-06T03:40:15.351Z,16.10
2018-08-06T03:42:44.735Z,15.80
2018-08-06T03:45:13.957Z,15.80
2018-08-06T03:47:43.789Z,15.90
2018-08-06T03:50:14.053Z,15.80
2018-08-06T03:52:43.741Z,15.70
2018-08-06T03:55:13.248Z,15.70
2018-08-06T03:57:42.635Z,15.70
2018-08-06T04:00:14.434Z,15.70
2018-08-06T04:02:44.233Z,15.80
2018-08-06T04:05:14.599Z,15.50
2018-08-06T04:07:43.852Z,15.40
2018-08-06T04:10:15.650Z,15.30
2018-08-06T04:12:44.980Z,15.30
2018-08-06T04:15:14.249Z,15.30
2018-08-06T04:17:43.895Z,15.30
2018-08-06T04:20:13.733Z,15.30
2018-08-06T04:22:43.560Z,15.40
2018-08-06T04:25:12.910Z,15.40
2018-08-06T04:27:42.118Z,15.30
2018-08-06T04:30:15.883Z,15.30
2018-08-06T04:32:46.275Z,15.20
2018-08-06T04:35:15.861Z,15.20
2018-08-06T04:37:45.673Z,15.20
2018-08-06T04:40:14.935Z,15.20
2018-08-06T04:42:44.392Z,15.30
2018-08-06T04:45:13.684Z,15.30
2018-08-06T04:47:43.117Z,15.40
2018-08-06T04:50:14.163Z,15.50
2018-08-06T04:52:44.192Z,15.60
2018-08-06T04:55:14.481Z,15.60
2018-08-06T04:57:43.754Z,15.70
2018-08-06T05:00:14.796Z,15.70
2018-08-06T05:02:44.521Z,15.60
2018-08-06T05:05:13.726Z,15.70
2018-08-06T05:07:42.952Z,15.70
2018-08-06T05:10:12.147Z,15.70
2018-08-06T05:15:10.389Z,15.80
2018-08-06T05:17:39.626Z,15.70
2018-08-06T05:20:08.869Z,15.60
2018-08-06T05:22:38.082Z,15.50
2018-08-06T05:25:07.400Z,15.60
2018-08-06T05:27:36.850Z,15.60
2018-08-06T05:30:09.320Z,15.70
2018-08-06T05:32:38.928Z,15.70
2018-08-06T05:35:08.619Z,15.70
2018-08-06T05:37:37.981Z,15.80
2018-08-06T05:42:37.842Z,16.00
2018-08-06T05:45:08.465Z,16.10
2018-08-06T05:47:38.169Z,16.20
2018-08-06T05:50:10.785Z,16.40
2018-08-06T05:52:40.357Z,16.50
2018-08-06T05:55:10.933Z,16.50
2018-08-06T05:57:41.292Z,16.60
2018-08-06T06:00:17.277Z,16.70
2018-08-06T06:02:46.998Z,16.80
2018-08-06T06:05:16.274Z,17.00
2018-08-06T06:07:45.532Z,17.00
2018-08-06T06:10:15.822Z,17.10
2018-08-06T06:12:45.078Z,17.20
2018-08-06T06:15:15.977Z,17.30
2018-08-06T06:17:45.430Z,17.40
2018-08-06T06:20:14.726Z,17.40
2018-08-06T06:22:44.005Z,17.50
2018-08-06T06:25:13.989Z,17.60
2018-08-06T06:27:43.620Z,17.60
2018-08-06T06:30:15.778Z,17.70
2018-08-06T06:32:45.389Z,17.80
2018-08-06T06:35:14.905Z,17.80
2018-08-06T06:37:44.415Z,17.80
2018-08-06T06:40:13.679Z,18.00
2018-08-06T06:42:42.999Z,18.10
2018-08-06T06:45:12.221Z,18.20
2018-08-06T06:47:41.540Z,18.30
2018-08-06T06:50:10.757Z,18.50
2018-08-06T06:55:11.533Z,18.70
2018-08-06T06:57:41.037Z,18.80
2018-08-06T07:00:11.194Z,18.90
2018-08-06T07:02:41.251Z,19.00
2018-08-06T07:05:10.441Z,19.20
2018-08-06T07:07:39.645Z,19.30
2018-08-06T07:10:11.065Z,19.40
2018-08-06T07:12:40.425Z,19.50
2018-08-06T07:15:14.432Z,19.60
2018-08-06T07:17:46.202Z,19.80
2018-08-06T07:20:17.176Z,20.10
2018-08-06T07:22:46.487Z,20.40
2018-08-06T07:25:15.776Z,20.70
2018-08-06T07:27:44.999Z,21.00
2018-08-06T07:30:15.455Z,21.10
2018-08-06T07:32:45.633Z,21.30
2018-08-06T07:35:15.309Z,21.40
2018-08-06T07:37:44.549Z,21.50
2018-08-06T07:40:15.104Z,21.60
2018-08-06T07:42:44.305Z,21.80
2018-08-06T07:45:16.592Z,22.00
2018-08-06T07:47:46.743Z,22.10
2018-08-06T07:50:17.829Z,22.20
2018-08-06T07:52:47.366Z,22.30
2018-08-06T07:55:16.727Z,22.50
2018-08-06T07:57:46.021Z,22.70
2018-08-06T08:00:17.481Z,22.90
2018-08-06T08:02:46.702Z,23.10
2018-08-06T08:05:17.003Z,23.20
2018-08-06T08:07:47.238Z,23.30
2018-08-06T08:10:19.831Z,23.40
2018-08-06T08:12:49.021Z,23.40
2018-08-06T08:15:23.433Z,23.40
2018-08-06T08:17:52.740Z,23.50
2018-08-06T08:20:22.159Z,23.60
2018-08-06T08:22:51.216Z,23.80
2018-08-06T08:25:21.966Z,24.00
2018-08-06T08:27:51.210Z,24.20
2018-08-06T08:30:20.771Z,24.50
2018-08-06T08:32:49.991Z,24.70
2018-08-06T08:35:19.508Z,24.90
2018-08-06T08:37:48.712Z,25.00
2018-08-06T08:40:19.477Z,25.10
2018-08-06T08:42:48.744Z,25.30
2018-08-06T08:45:18.658Z,25.40
2018-08-06T08:47:47.934Z,25.60
2018-08-06T08:50:19.356Z,25.80
2018-08-06T08:52:48.604Z,25.90
2018-08-06T08:55:19.325Z,26.00
2018-08-06T08:57:48.570Z,26.10
2018-08-06T09:00:21.220Z,26.30
2018-08-06T09:02:51.335Z,26.50
2018-08-06T09:05:20.882Z,26.60
2018-08-06T09:07:51.250Z,26.70
2018-08-06T09:10:20.964Z,26.90
2018-08-06T09:12:51.129Z,27.00
2018-08-06T09:15:26.230Z,27.00
2018-08-06T09:17:55.453Z,26.70
2018-08-06T09:20:25.902Z,26.60
2018-08-06T09:22:55.255Z,26.80
2018-08-06T09:25:24.466Z,27.00
2018-08-06T09:27:53.771Z,27.20
2018-08-06T09:30:24.132Z,27.10
2018-08-06T09:32:54.723Z,27.20
2018-08-06T09:35:23.930Z,27.20
2018-08-06T09:37:53.143Z,27.20
2018-08-06T09:40:23.161Z,27.30
2018-08-06T09:42:52.755Z,27.70
2018-08-06T09:45:22.766Z,27.90
2018-08-06T09:47:53.211Z,27.70
2018-08-06T09:50:22.811Z,27.90
2018-08-06T09:52:53.121Z,28.00
2018-08-06T09:55:25.388Z,27.90
2018-08-06T09:57:54.853Z,28.10
2018-08-06T10:00:29.401Z,28.30
2018-08-06T10:02:59.932Z,28.40
2018-08-06T10:05:29.525Z,28.40
2018-08-06T10:07:58.741Z,28.60
2018-08-06T10:10:27.949Z,28.60
2018-08-06T10:17:55.808Z,29.30
2018-08-06T10:20:26.031Z,29.10
2018-08-06T10:22:55.301Z,29.20
2018-08-06T10:25:24.542Z,29.40
2018-08-06T10:27:53.841Z,29.30
2018-08-06T10:30:23.810Z,29.50
2018-08-06T10:32:53.031Z,29.60
2018-08-06T10:35:22.269Z,29.60
2018-08-06T10:37:51.870Z,29.80
2018-08-06T10:40:22.397Z,29.70
2018-08-06T10:42:51.761Z,29.20
2018-08-06T10:45:22.336Z,29.00
2018-08-06T10:47:51.877Z,29.20
2018-08-06T10:50:21.170Z,29.50
2018-08-06T10:52:50.508Z,29.70
2018-08-06T10:55:19.785Z,29.90
2018-08-06T10:57:49.165Z,30.10
2018-08-06T11:00:20.878Z,30.20
2018-08-06T11:02:50.550Z,29.90
2018-08-06T11:05:20.407Z,29.80
2018-08-06T11:07:49.681Z,29.80
2018-08-06T11:10:20.170Z,30.10
2018-08-06T11:12:49.448Z,30.40
2018-08-06T11:15:23.985Z,30.60
2018-08-06T11:17:53.626Z,30.80
2018-08-06T11:20:23.470Z,30.90
2018-08-06T11:22:52.741Z,31.00
2018-08-06T11:25:23.297Z,31.20
2018-08-06T11:27:52.596Z,31.10
2018-08-06T11:30:22.762Z,31.10
2018-08-06T11:32:52.665Z,31.20
2018-08-06T11:35:21.958Z,30.90
2018-08-06T11:37:51.331Z,31.00
2018-08-06T11:40:20.577Z,31.00
2018-08-06T11:42:49.923Z,30.40
2018-08-06T11:45:20.342Z,30.60
2018-08-06T11:47:49.594Z,30.90
2018-08-06T11:50:18.862Z,31.10
2018-08-06T11:52:48.123Z,31.20
2018-08-06T11:55:17.414Z,31.70
2018-08-06T11:57:46.701Z,31.90
2018-08-06T12:00:24.488Z,31.90
2018-08-06T12:02:53.781Z,31.90
2018-08-06T12:05:23.147Z,31.70
2018-08-06T12:07:52.410Z,31.70
2018-08-06T12:10:21.638Z,32.10
2018-08-06T12:12:51.184Z,32.20
2018-08-06T12:15:20.534Z,32.40
2018-08-06T12:17:49.689Z,32.20
2018-08-06T12:20:20.204Z,32.20
2018-08-06T12:22:50.726Z,32.40
2018-08-06T12:25:20.239Z,32.30
2018-08-06T12:27:50.044Z,32.40
2018-08-06T12:30:21.838Z,32.50
2018-08-06T12:32:51.837Z,32.60
2018-08-06T12:35:21.054Z,32.70
2018-08-06T12:37:50.337Z,32.50
2018-08-06T12:40:20.822Z,32.60
2018-08-06T12:42:50.022Z,32.60
2018-08-06T12:45:19.216Z,32.70
2018-08-06T12:47:48.635Z,32.70
2018-08-06T12:50:18.259Z,32.80
2018-08-06T12:52:47.506Z,32.90
2018-08-06T12:55:17.591Z,32.90
2018-08-06T12:57:47.030Z,33.00
2018-08-06T13:00:25.346Z,33.20
2018-08-06T13:02:54.897Z,33.20
2018-08-06T13:05:24.674Z,33.30
2018-08-06T13:07:53.918Z,33.50
2018-08-06T13:10:23.113Z,33.50
2018-08-06T13:12:52.340Z,33.60
2018-08-06T13:15:21.529Z,33.40
2018-08-06T13:17:50.735Z,33.30
2018-08-06T13:20:19.937Z,33.30
2018-08-06T13:22:49.200Z,33.30
2018-08-06T13:25:18.411Z,32.70
2018-08-06T13:27:47.635Z,32.70
2018-08-06T13:30:16.874Z,32.70
2018-08-06T13:32:46.413Z,32.70
2018-08-06T13:35:16.225Z,32.30
2018-08-06T13:37:51.783Z,32.60
2018-08-06T13:40:20.997Z,32.60
2018-08-06T13:42:50.219Z,32.60
2018-08-06T13:45:19.420Z,32.10
2018-08-06T13:47:48.622Z,32.10
2018-08-06T13:50:17.953Z,32.00
2018-08-06T13:52:47.166Z,31.40
2018-08-06T13:55:16.381Z,31.40
2018-08-06T13:57:45.590Z,31.60
2018-08-06T14:00:18.038Z,31.70
2018-08-06T14:02:47.700Z,31.60
2018-08-06T14:05:17.831Z,31.90
2018-08-06T14:07:48.142Z,32.20
2018-08-06T14:10:17.676Z,32.40
2018-08-06T14:12:46.985Z,32.50
2018-08-06T14:15:16.213Z,32.50
2018-08-06T14:17:45.492Z,32.50
2018-08-06T14:20:16.898Z,32.50
2018-08-06T14:22:46.162Z,32.50
2018-08-06T14:25:15.357Z,32.50
2018-08-06T14:27:44.557Z,32.60
2018-08-06T14:30:15.471Z,32.60
2018-08-06T14:32:45.158Z,32.70
2018-08-06T14:37:43.701Z,32.80
2018-08-06T14:40:16.467Z,32.80
2018-08-06T14:42:45.985Z,32.80
2018-08-06T14:45:15.215Z,32.80
2018-08-06T14:47:44.433Z,32.90
2018-08-06T14:50:14.885Z,32.90
2018-08-06T14:52:44.209Z,32.90
2018-08-06T14:55:13.510Z,32.90
2018-08-06T14:57:43.021Z,32.80
2018-08-06T15:00:21.772Z,31.80
2018-08-06T15:02:51.981Z,32.20
2018-08-06T15:05:21.216Z,32.40
2018-08-06T15:07:50.450Z,32.40
2018-08-06T15:10:19.669Z,32.30
2018-08-06T15:12:48.997Z,32.40
2018-08-06T15:15:18.859Z,32.10
2018-08-06T15:17:48.110Z,32.00
2018-08-06T15:20:18.472Z,32.20
2018-08-06T15:22:47.853Z,32.40
2018-08-06T15:25:20.493Z,32.20
2018-08-06T15:27:49.878Z,31.80
2018-08-06T15:30:19.325Z,31.80
2018-08-06T15:32:48.549Z,31.90
2018-08-06T15:35:17.749Z,32.00
2018-08-06T15:37:46.991Z,32.10
2018-08-06T15:40:19.327Z,32.10
2018-08-06T15:45:17.528Z,31.90
2018-08-06T15:47:47.078Z,31.70
2018-08-06T15:50:19.616Z,31.70
2018-08-06T15:52:48.908Z,31.70
2018-08-06T15:55:18.138Z,31.60
2018-08-06T15:57:47.354Z,31.60
2018-08-06T16:00:17.990Z,31.70
2018-08-06T16:02:47.566Z,31.60
2018-08-06T16:05:16.869Z,31.80
2018-08-06T16:07:46.391Z,31.80
2018-08-06T16:10:16.010Z,31.50
2018-08-06T16:12:45.260Z,31.70
2018-08-06T16:15:15.461Z,31.80
2018-08-06T16:17:45.153Z,31.90
2018-08-06T16:20:16.637Z,32.00
2018-08-06T16:22:45.888Z,32.00
2018-08-06T16:25:15.369Z,32.00
2018-08-06T16:27:44.595Z,32.00
2018-08-06T16:30:20.851Z,32.00
2018-08-06T16:32:50.349Z,31.80
2018-08-06T16:35:21.710Z,31.80
2018-08-06T16:37:52.664Z,31.80
2018-08-06T16:42:51.699Z,31.70
2018-08-06T16:45:21.227Z,31.70
2018-08-06T16:47:50.554Z,31.60
2018-08-06T16:50:19.980Z,31.50
2018-08-06T16:52:49.375Z,31.40
2018-08-06T16:55:18.532Z,31.40
2018-08-06T16:57:47.727Z,31.30
2018-08-06T17:00:21.809Z,31.30
2018-08-06T17:02:52.441Z,31.30
2018-08-06T17:05:21.698Z,31.20
2018-08-06T17:07:51.275Z,31.10
2018-08-06T17:10:21.852Z,31.10
2018-08-06T17:12:53.136Z,31.00
2018-08-06T17:15:22.789Z,31.00
2018-08-06T17:17:54.225Z,31.00
2018-08-06T17:20:24.329Z,30.90
2018-08-06T17:22:53.831Z,30.80
2018-08-06T17:25:23.684Z,30.80
2018-08-06T17:27:52.997Z,30.70
2018-08-06T17:30:22.344Z,30.70
2018-08-06T17:35:20.527Z,30.60
2018-08-06T17:37:49.825Z,31.20
2018-08-06T17:40:19.721Z,31.60
2018-08-06T17:42:49.274Z,31.30
2018-08-06T17:45:20.381Z,31.00
2018-08-06T17:47:49.661Z,30.80
2018-08-06T17:50:20.665Z,30.60
2018-08-06T17:52:51.000Z,30.50
2018-08-06T17:55:21.073Z,30.30
2018-08-06T17:57:50.342Z,30.20
2018-08-06T18:00:19.942Z,30.10
2018-08-06T18:02:49.304Z,30.00
2018-08-06T18:07:48.222Z,29.90
2018-08-06T18:10:18.128Z,29.80
2018-08-06T18:12:47.850Z,29.70
2018-08-06T18:15:17.053Z,29.60
2018-08-06T18:17:46.257Z,29.60
2018-08-06T18:20:18.130Z,29.50
2018-08-06T18:22:47.444Z,29.40
2018-08-06T18:25:19.319Z,29.30
2018-08-06T18:27:49.388Z,29.20
2018-08-06T18:30:21.589Z,29.10
2018-08-06T18:32:51.033Z,29.10
2018-08-06T18:35:20.670Z,29.00
2018-08-06T18:37:49.858Z,28.90
2018-08-06T18:40:20.357Z,28.90
2018-08-06T18:42:49.689Z,28.80
2018-08-06T18:45:20.828Z,28.70
2018-08-06T18:47:50.843Z,28.70
2018-08-06T18:50:20.432Z,28.60
2018-08-06T18:52:50.171Z,28.50
2018-08-06T18:55:19.597Z,28.50
2018-08-06T18:57:48.844Z,28.40
2018-08-06T19:00:20.751Z,28.30
2018-08-06T19:02:49.984Z,28.30
2018-08-06T19:05:19.270Z,28.20
2018-08-06T19:07:48.537Z,28.20
2018-08-06T19:10:17.748Z,28.10
2018-08-06T19:12:52.160Z,28.10
2018-08-06T19:15:21.481Z,28.00
2018-08-06T19:17:56.052Z,27.90
2018-08-06T19:20:25.308Z,27.80
2018-08-06T19:22:54.549Z,27.80
2018-08-06T19:25:27.168Z,27.60
2018-08-06T19:27:56.700Z,27.60
2018-08-06T19:30:31.254Z,27.60
2018-08-06T19:33:00.967Z,27.50
2018-08-06T19:35:30.221Z,27.50
2018-08-06T19:37:59.420Z,27.40
2018-08-06T19:40:28.673Z,27.20
2018-08-06T19:45:32.287Z,27.20
2018-08-06T19:48:01.504Z,27.20
2018-08-06T19:50:35.977Z,27.10
2018-08-06T19:53:05.404Z,27.00
2018-08-06T19:55:39.858Z,27.00
2018-08-06T19:58:09.104Z,26.90
2018-08-06T20:00:38.288Z,26.80
2018-08-06T20:03:07.561Z,26.70
2018-08-06T20:05:36.816Z,26.70
2018-08-06T20:08:06.172Z,26.60
2018-08-06T20:10:35.538Z,26.30
2018-08-06T20:13:04.865Z,25.90
2018-08-06T20:15:34.218Z,25.80
2018-08-06T20:18:03.459Z,25.70
2018-08-06T20:20:32.688Z,25.80
2018-08-06T20:23:01.900Z,25.60
2018-08-06T20:25:31.173Z,25.50
2018-08-06T20:28:00.604Z,25.40
2018-08-06T20:30:29.801Z,25.30
2018-08-06T20:32:59.039Z,25.20
2018-08-06T20:35:28.272Z,25.10
2018-08-06T20:37:57.484Z,25.10
2018-08-06T20:40:26.688Z,25.00
2018-08-06T20:42:55.918Z,24.90
2018-08-06T20:45:25.140Z,25.00
2018-08-06T20:50:24.041Z,24.80
2018-08-06T20:52:54.327Z,24.80
2018-08-06T20:55:23.527Z,24.50
2018-08-06T20:57:52.816Z,24.30
2018-08-06T21:00:24.226Z,24.10
2018-08-06T21:02:53.935Z,23.90
2018-08-06T21:05:23.121Z,23.80
2018-08-06T21:07:52.447Z,23.70
2018-08-06T21:10:21.699Z,23.60
2018-08-06T21:12:50.990Z,23.50
2018-08-06T21:15:20.181Z,23.40
2018-08-06T21:17:49.489Z,23.40
2018-08-06T21:22:49.356Z,23.00
2018-08-06T21:25:18.580Z,23.10
2018-08-06T21:27:48.664Z,22.90
2018-08-06T21:30:20.425Z,22.80
2018-08-06T21:32:57.725Z,22.90
2018-08-06T21:35:28.108Z,22.70
2018-08-06T21:37:57.607Z,22.70
2018-08-06T21:40:27.449Z,22.80
2018-08-06T21:42:56.696Z,22.70
2018-08-06T21:45:25.957Z,22.90
2018-08-06T21:47:55.171Z,22.70
2018-08-06T21:52:53.423Z,22.70
2018-08-06T21:55:22.625Z,22.60
2018-08-06T21:57:51.799Z,22.50
2018-08-06T22:00:31.265Z,22.50
2018-08-06T22:03:00.698Z,22.60
2018-08-06T22:05:29.922Z,22.50
2018-08-06T22:07:59.109Z,22.50
2018-08-06T22:10:28.339Z,22.30
2018-08-06T22:12:57.535Z,22.30
2018-08-06T22:15:26.756Z,22.40
2018-08-06T22:17:56.017Z,22.50
2018-08-06T22:20:25.226Z,22.50
2018-08-06T22:22:54.981Z,22.50
2018-08-06T22:25:24.653Z,22.40
2018-08-06T22:27:53.948Z,22.40
2018-08-06T22:30:23.148Z,22.30
2018-08-06T22:32:52.409Z,22.30
2018-08-06T22:35:21.645Z,22.40
2018-08-06T22:37:50.847Z,22.30
2018-08-06T22:40:20.097Z,22.30
2018-08-06T22:42:49.288Z,22.30
2018-08-06T22:45:18.488Z,22.30
2018-08-06T22:47:47.674Z,22.30
2018-08-06T22:50:16.891Z,22.30
2018-08-06T22:52:46.103Z,22.30
2018-08-06T22:55:15.337Z,22.20
2018-08-06T22:57:44.545Z,22.20
2018-08-06T23:00:15.886Z,22.20
2018-08-06T23:05:16.415Z,22.20
2018-08-06T23:07:45.636Z,22.10
2018-08-06T23:10:17.109Z,22.10
2018-08-06T23:12:46.529Z,22.00
2018-08-06T23:15:17.228Z,22.00
2018-08-06T23:17:46.746Z,22.10
2018-08-06T23:20:15.992Z,22.00
2018-08-06T23:22:45.222Z,22.00
2018-08-06T23:25:14.435Z,22.00
2018-08-06T23:27:43.654Z,22.00
2018-08-06T23:30:15.402Z,22.10
2018-08-06T23:32:44.719Z,22.10
2018-08-06T23:35:14.646Z,22.10
2018-08-06T23:37:45.098Z,22.10
2018-08-06T23:40:14.952Z,22.10
2018-08-06T23:42:44.537Z,22.10
2018-08-06T23:45:15.933Z,22.00
2018-08-06T23:47:45.270Z,22.00
2018-08-06T23:50:15.637Z,22.00
2018-08-06T23:52:45.783Z,21.90
2018-08-06T23:55:17.513Z,21.90
2018-08-06T23:57:46.883Z,21.90
